sensor_id;sensor_type;location;lat;lon;timestamp;noise_LAeq;noise_LA_min;noise_LA_max;noise_LA01;noise_LA95
72805;Laerm;60920;48.748;19.142;2023-04-09T00:02:14;33.97;32.10;36.07;;
72805;Laerm;60920;48.748;19.142;2023-04-09T00:04:40;33.94;32.59;36.63;;
72805;Laerm;60920;48.748;19.142;2023-04-09T00:07:05;34.26;32.27;41.63;;
72805;Laerm;60920;48.748;19.142;2023-04-09T00:09:31;33.69;32.25;34.90;;
72805;Laerm;60920;48.748;19.142;2023-04-09T00:11:56;33.80;32.40;35.75;;
72805;Laerm;60920;48.748;19.142;2023-04-09T00:14:22;34.01;32.42;35.69;;
72805;Laerm;60920;48.748;19.142;2023-04-09T00:16:48;34.17;32.55;35.60;;
72805;Laerm;60920;48.748;19.142;2023-04-09T00:19:13;34.50;32.85;36.84;;
72805;Laerm;60920;48.748;19.142;2023-04-09T00:21:38;34.63;33.20;37.55;;
72805;Laerm;60920;48.748;19.142;2023-04-09T00:24:04;34.65;33.12;36.18;;
72805;Laerm;60920;48.748;19.142;2023-04-09T00:26:30;34.64;33.27;36.33;;
72805;Laerm;60920;48.748;19.142;2023-04-09T00:28:55;34.80;33.15;36.81;;
72805;Laerm;60920;48.748;19.142;2023-04-09T00:31:21;34.78;33.27;36.58;;
72805;Laerm;60920;48.748;19.142;2023-04-09T00:33:46;34.86;33.38;36.52;;
72805;Laerm;60920;48.748;19.142;2023-04-09T00:36:12;34.90;33.37;36.39;;
72805;Laerm;60920;48.748;19.142;2023-04-09T00:38:37;34.87;33.43;36.37;;
72805;Laerm;60920;48.748;19.142;2023-04-09T00:41:03;34.77;33.28;36.11;;
72805;Laerm;60920;48.748;19.142;2023-04-09T00:43:28;34.91;33.39;37.03;;
72805;Laerm;60920;48.748;19.142;2023-04-09T00:45:54;35.02;33.29;37.09;;
72805;Laerm;60920;48.748;19.142;2023-04-09T00:48:20;34.86;33.28;36.48;;
72805;Laerm;60920;48.748;19.142;2023-04-09T00:50:45;34.76;33.09;36.85;;
72805;Laerm;60920;48.748;19.142;2023-04-09T00:53:11;34.63;32.84;35.98;;
72805;Laerm;60920;48.748;19.142;2023-04-09T00:55:38;34.79;32.88;37.91;;
72805;Laerm;60920;48.748;19.142;2023-04-09T00:58:03;34.55;33.04;36.90;;
72805;Laerm;60920;48.748;19.142;2023-04-09T01:00:29;34.46;33.02;36.16;;
72805;Laerm;60920;48.748;19.142;2023-04-09T01:02:55;34.46;32.94;36.32;;
72805;Laerm;60920;48.748;19.142;2023-04-09T01:05:21;34.35;32.65;36.48;;
72805;Laerm;60920;48.748;19.142;2023-04-09T01:08:31;34.28;32.83;37.75;;
72805;Laerm;60920;48.748;19.142;2023-04-09T01:15:33;34.19;32.66;36.08;;
72805;Laerm;60920;48.748;19.142;2023-04-09T01:18:04;34.12;32.51;35.44;;
72805;Laerm;60920;48.748;19.142;2023-04-09T01:20:34;34.41;32.79;36.16;;
72805;Laerm;60920;48.748;19.142;2023-04-09T01:28:20;34.38;32.87;36.27;;
72805;Laerm;60920;48.748;19.142;2023-04-09T01:30:51;34.32;32.72;36.39;;
72805;Laerm;60920;48.748;19.142;2023-04-09T01:33:18;34.21;32.58;36.40;;
72805;Laerm;60920;48.748;19.142;2023-04-09T01:35:47;34.39;32.61;36.56;;
72805;Laerm;60920;48.748;19.142;2023-04-09T01:38:14;34.31;32.86;36.34;;
72805;Laerm;60920;48.748;19.142;2023-04-09T01:40:41;34.13;32.32;35.88;;
72805;Laerm;60920;48.748;19.142;2023-04-09T01:43:06;34.08;32.50;36.27;;
72805;Laerm;60920;48.748;19.142;2023-04-09T01:45:33;33.95;32.35;35.62;;
72805;Laerm;60920;48.748;19.142;2023-04-09T01:47:58;33.98;32.45;36.18;;
72805;Laerm;60920;48.748;19.142;2023-04-09T01:50:24;34.16;32.54;36.73;;
72805;Laerm;60920;48.748;19.142;2023-04-09T01:52:49;34.10;32.45;36.48;;
72805;Laerm;60920;48.748;19.142;2023-04-09T01:55:15;34.11;32.53;36.35;;
72805;Laerm;60920;48.748;19.142;2023-04-09T01:57:40;33.99;32.53;35.80;;
72805;Laerm;60920;48.748;19.142;2023-04-09T02:00:06;34.01;32.59;35.52;;
72805;Laerm;60920;48.748;19.142;2023-04-09T02:02:36;34.13;32.47;36.10;;
72805;Laerm;60920;48.748;19.142;2023-04-09T02:05:05;34.14;32.58;36.39;;
72805;Laerm;60920;48.748;19.142;2023-04-09T02:07:39;34.03;32.56;36.21;;
72805;Laerm;60920;48.748;19.142;2023-04-09T02:10:06;33.93;32.12;36.03;;
72805;Laerm;60920;48.748;19.142;2023-04-09T02:12:36;34.00;32.64;35.67;;
72805;Laerm;60920;48.748;19.142;2023-04-09T02:15:01;34.07;32.11;36.70;;
72805;Laerm;60920;48.748;19.142;2023-04-09T02:17:27;34.11;32.56;35.80;;
72805;Laerm;60920;48.748;19.142;2023-04-09T02:19:52;34.26;32.87;36.22;;
72805;Laerm;60920;48.748;19.142;2023-04-09T02:22:18;34.23;32.65;37.12;;
72805;Laerm;60920;48.748;19.142;2023-04-09T02:24:44;34.29;32.68;37.35;;
72805;Laerm;60920;48.748;19.142;2023-04-09T02:27:10;34.64;32.67;44.59;;
72805;Laerm;60920;48.748;19.142;2023-04-09T02:29:35;34.74;32.64;42.37;;
72805;Laerm;60920;48.748;19.142;2023-04-09T02:32:01;34.58;32.64;42.79;;
72805;Laerm;60920;48.748;19.142;2023-04-09T02:34:26;34.73;32.68;42.65;;
72805;Laerm;60920;48.748;19.142;2023-04-09T02:36:52;34.59;32.83;41.62;;
72805;Laerm;60920;48.748;19.142;2023-04-09T02:39:17;34.48;32.80;40.32;;
72805;Laerm;60920;48.748;19.142;2023-04-09T02:41:43;34.39;32.64;37.05;;
72805;Laerm;60920;48.748;19.142;2023-04-09T02:44:08;34.37;32.57;36.65;;
72805;Laerm;60920;48.748;19.142;2023-04-09T02:46:34;34.40;32.70;36.59;;
72805;Laerm;60920;48.748;19.142;2023-04-09T02:48:59;34.41;32.65;37.26;;
72805;Laerm;60920;48.748;19.142;2023-04-09T02:51:24;34.24;32.69;36.48;;
72805;Laerm;60920;48.748;19.142;2023-04-09T02:53:51;34.62;32.47;37.12;;
72805;Laerm;60920;48.748;19.142;2023-04-09T02:56:16;34.46;32.54;38.86;;
72805;Laerm;60920;48.748;19.142;2023-04-09T02:58:42;34.39;32.73;37.08;;
72805;Laerm;60920;48.748;19.142;2023-04-09T03:01:08;34.48;32.86;38.74;;
72805;Laerm;60920;48.748;19.142;2023-04-09T03:03:33;34.46;32.78;37.88;;
72805;Laerm;60920;48.748;19.142;2023-04-09T03:05:58;34.44;32.57;40.76;;
72805;Laerm;60920;48.748;19.142;2023-04-09T03:08:24;34.34;32.62;36.79;;
72805;Laerm;60920;48.748;19.142;2023-04-09T03:10:49;34.45;32.74;37.18;;
72805;Laerm;60920;48.748;19.142;2023-04-09T03:13:15;34.56;32.81;38.00;;
72805;Laerm;60920;48.748;19.142;2023-04-09T03:15:40;35.00;32.68;45.56;;
72805;Laerm;60920;48.748;19.142;2023-04-09T03:18:05;35.72;32.67;45.47;;
72805;Laerm;60920;48.748;19.142;2023-04-09T03:20:31;35.82;32.88;47.51;;
72805;Laerm;60920;48.748;19.142;2023-04-09T03:22:56;35.93;32.89;47.52;;
72805;Laerm;60920;48.748;19.142;2023-04-09T03:25:22;35.78;33.04;45.60;;
72805;Laerm;60920;48.748;19.142;2023-04-09T03:27:47;35.24;32.89;46.54;;
72805;Laerm;60920;48.748;19.142;2023-04-09T03:30:13;35.01;32.84;40.93;;
72805;Laerm;60920;48.748;19.142;2023-04-09T03:32:38;35.06;32.98;40.57;;
72805;Laerm;60920;48.748;19.142;2023-04-09T03:35:03;35.70;32.82;49.32;;
72805;Laerm;60920;48.748;19.142;2023-04-09T03:37:29;35.61;32.45;45.34;;
72805;Laerm;60920;48.748;19.142;2023-04-09T03:39:55;35.29;32.76;43.19;;
72805;Laerm;60920;48.748;19.142;2023-04-09T03:42:20;35.25;32.59;41.10;;
72805;Laerm;60920;48.748;19.142;2023-04-09T03:44:46;35.38;32.45;42.15;;
72805;Laerm;60920;48.748;19.142;2023-04-09T03:47:11;34.98;32.65;39.89;;
72805;Laerm;60920;48.748;19.142;2023-04-09T03:49:37;35.07;32.31;41.24;;
72805;Laerm;60920;48.748;19.142;2023-04-09T03:52:04;34.46;32.57;40.48;;
72805;Laerm;60920;48.748;19.142;2023-04-09T03:54:30;34.60;32.44;44.35;;
72805;Laerm;60920;48.748;19.142;2023-04-09T03:56:55;35.11;32.60;44.01;;
72805;Laerm;60920;48.748;19.142;2023-04-09T03:59:21;34.33;32.20;43.07;;
72805;Laerm;60920;48.748;19.142;2023-04-09T04:01:52;34.14;32.42;40.36;;
72805;Laerm;60920;48.748;19.142;2023-04-09T04:04:18;34.07;32.54;38.50;;
72805;Laerm;60920;48.748;19.142;2023-04-09T04:06:43;34.24;32.64;37.08;;
72805;Laerm;60920;48.748;19.142;2023-04-09T04:09:09;34.40;32.76;37.45;;
72805;Laerm;60920;48.748;19.142;2023-04-09T04:11:34;34.28;32.71;43.77;;
72805;Laerm;60920;48.748;19.142;2023-04-09T04:14:00;34.59;32.58;44.95;;
72805;Laerm;60920;48.748;19.142;2023-04-09T04:16:25;34.30;32.30;40.73;;
72805;Laerm;60920;48.748;19.142;2023-04-09T04:18:51;35.09;32.68;44.82;;
72805;Laerm;60920;48.748;19.142;2023-04-09T04:21:16;34.27;32.43;48.88;;
72805;Laerm;60920;48.748;19.142;2023-04-09T04:23:42;34.24;32.47;38.73;;
72805;Laerm;60920;48.748;19.142;2023-04-09T04:26:07;34.23;32.39;40.04;;
72805;Laerm;60920;48.748;19.142;2023-04-09T04:28:39;34.03;32.33;36.26;;
72805;Laerm;60920;48.748;19.142;2023-04-09T04:31:08;33.99;32.33;37.60;;
72805;Laerm;60920;48.748;19.142;2023-04-09T04:33:35;34.25;32.45;38.63;;
72805;Laerm;60920;48.748;19.142;2023-04-09T04:36:07;34.23;32.67;36.84;;
72805;Laerm;60920;48.748;19.142;2023-04-09T04:38:33;35.50;32.51;45.03;;
72805;Laerm;60920;48.748;19.142;2023-04-09T04:40:59;34.38;32.68;39.08;;
72805;Laerm;60920;48.748;19.142;2023-04-09T04:43:24;34.39;32.44;39.77;;
72805;Laerm;60920;48.748;19.142;2023-04-09T04:45:50;34.01;32.15;38.77;;
72805;Laerm;60920;48.748;19.142;2023-04-09T04:48:15;34.45;32.53;38.45;;
72805;Laerm;60920;48.748;19.142;2023-04-09T04:50:41;34.38;32.65;41.30;;
72805;Laerm;60920;48.748;19.142;2023-04-09T04:53:06;34.46;32.59;40.26;;
72805;Laerm;60920;48.748;19.142;2023-04-09T04:55:34;34.69;32.39;40.97;;
72805;Laerm;60920;48.748;19.142;2023-04-09T04:58:00;34.13;32.30;38.65;;
72805;Laerm;60920;48.748;19.142;2023-04-09T05:00:25;34.35;32.44;41.17;;
72805;Laerm;60920;48.748;19.142;2023-04-09T05:02:51;35.19;32.50;44.50;;
72805;Laerm;60920;48.748;19.142;2023-04-09T05:05:16;35.70;32.54;45.43;;
72805;Laerm;60920;48.748;19.142;2023-04-09T05:07:42;34.32;32.45;39.96;;
72805;Laerm;60920;48.748;19.142;2023-04-09T05:10:07;34.39;32.52;36.98;;
72805;Laerm;60920;48.748;19.142;2023-04-09T05:12:33;34.10;32.25;43.57;;
72805;Laerm;60920;48.748;19.142;2023-04-09T05:14:58;34.14;32.16;36.78;;
72805;Laerm;60920;48.748;19.142;2023-04-09T05:17:24;34.45;32.17;44.78;;
72805;Laerm;60920;48.748;19.142;2023-04-09T05:19:50;34.17;31.98;39.57;;
72805;Laerm;60920;48.748;19.142;2023-04-09T05:22:15;34.37;32.34;37.87;;
72805;Laerm;60920;48.748;19.142;2023-04-09T05:24:40;34.19;31.86;38.61;;
72805;Laerm;60920;48.748;19.142;2023-04-09T05:27:06;34.03;31.89;37.04;;
72805;Laerm;60920;48.748;19.142;2023-04-09T05:29:32;33.94;31.75;41.96;;
72805;Laerm;60920;48.748;19.142;2023-04-09T05:31:57;33.59;31.93;38.74;;
72805;Laerm;60920;48.748;19.142;2023-04-09T05:34:22;33.52;31.70;36.47;;
72805;Laerm;60920;48.748;19.142;2023-04-09T05:36:48;33.58;31.36;38.75;;
72805;Laerm;60920;48.748;19.142;2023-04-09T05:39:13;33.55;31.65;37.57;;
72805;Laerm;60920;48.748;19.142;2023-04-09T05:41:39;34.10;31.53;43.97;;
72805;Laerm;60920;48.748;19.142;2023-04-09T05:44:06;41.62;31.84;60.47;;
72805;Laerm;60920;48.748;19.142;2023-04-09T05:46:31;43.33;32.57;60.82;;
72805;Laerm;60920;48.748;19.142;2023-04-09T05:48:56;42.73;32.04;57.73;;
72805;Laerm;60920;48.748;19.142;2023-04-09T05:51:22;45.69;33.98;62.83;;
72805;Laerm;60920;48.748;19.142;2023-04-09T05:53:47;38.94;31.62;59.93;;
72805;Laerm;60920;48.748;19.142;2023-04-09T05:56:13;36.76;31.31;57.58;;
72805;Laerm;60920;48.748;19.142;2023-04-09T05:58:39;38.31;31.71;53.67;;
72805;Laerm;60920;48.748;19.142;2023-04-09T06:01:05;35.90;31.32;55.58;;
72805;Laerm;60920;48.748;19.142;2023-04-09T06:03:30;36.33;31.57;58.28;;
72805;Laerm;60920;48.748;19.142;2023-04-09T06:05:56;36.76;31.11;55.34;;
72805;Laerm;60920;48.748;19.142;2023-04-09T06:08:21;34.98;32.21;49.45;;
72805;Laerm;60920;48.748;19.142;2023-04-09T06:10:47;34.89;31.75;42.24;;
72805;Laerm;60920;48.748;19.142;2023-04-09T06:13:15;36.20;32.38;44.68;;
72805;Laerm;60920;48.748;19.142;2023-04-09T06:15:40;36.54;32.29;44.02;;
72805;Laerm;60920;48.748;19.142;2023-04-09T06:18:05;35.01;32.04;41.12;;
72805;Laerm;60920;48.748;19.142;2023-04-09T06:20:31;34.31;30.94;38.75;;
72805;Laerm;60920;48.748;19.142;2023-04-09T06:22:56;33.81;31.31;43.94;;
72805;Laerm;60920;48.748;19.142;2023-04-09T06:25:22;33.34;30.86;41.86;;
72805;Laerm;60920;48.748;19.142;2023-04-09T06:27:48;32.99;29.90;43.65;;
72805;Laerm;60920;48.748;19.142;2023-04-09T06:30:13;32.54;30.18;37.22;;
72805;Laerm;60920;48.748;19.142;2023-04-09T06:32:38;32.52;30.45;35.67;;
72805;Laerm;60920;48.748;19.142;2023-04-09T06:35:04;33.25;30.03;40.67;;
72805;Laerm;60920;48.748;19.142;2023-04-09T06:37:30;32.66;29.80;37.63;;
72805;Laerm;60920;48.748;19.142;2023-04-09T06:39:56;31.84;29.11;37.41;;
72805;Laerm;60920;48.748;19.142;2023-04-09T06:42:21;32.40;29.48;36.85;;
72805;Laerm;60920;48.748;19.142;2023-04-09T06:44:46;32.12;29.10;36.67;;
72805;Laerm;60920;48.748;19.142;2023-04-09T06:47:12;31.55;29.02;36.75;;
72805;Laerm;60920;48.748;19.142;2023-04-09T06:49:37;31.79;29.28;38.49;;
72805;Laerm;60920;48.748;19.142;2023-04-09T06:52:03;32.79;29.35;43.45;;
72805;Laerm;60920;48.748;19.142;2023-04-09T06:54:28;33.24;30.00;39.73;;
72805;Laerm;60920;48.748;19.142;2023-04-09T06:56:54;36.06;29.01;53.54;;
72805;Laerm;60920;48.748;19.142;2023-04-09T06:59:19;32.23;29.36;42.80;;
72805;Laerm;60920;48.748;19.142;2023-04-09T07:01:44;32.16;29.51;41.90;;
72805;Laerm;60920;48.748;19.142;2023-04-09T07:04:11;32.23;29.03;42.33;;
72805;Laerm;60920;48.748;19.142;2023-04-09T07:06:36;32.61;28.72;43.67;;
72805;Laerm;60920;48.748;19.142;2023-04-09T07:09:02;32.47;29.39;39.63;;
72805;Laerm;60920;48.748;19.142;2023-04-09T07:11:27;32.04;28.55;36.89;;
72805;Laerm;60920;48.748;19.142;2023-04-09T07:13:52;32.37;29.02;41.50;;
72805;Laerm;60920;48.748;19.142;2023-04-09T07:16:20;33.22;29.74;40.55;;
72805;Laerm;60920;48.748;19.142;2023-04-09T07:18:46;32.49;29.20;42.07;;
72805;Laerm;60920;48.748;19.142;2023-04-09T07:21:11;32.04;29.04;42.17;;
72805;Laerm;60920;48.748;19.142;2023-04-09T07:23:36;34.36;28.96;44.53;;
72805;Laerm;60920;48.748;19.142;2023-04-09T07:26:02;32.48;29.26;36.18;;
72805;Laerm;60920;48.748;19.142;2023-04-09T07:28:28;33.24;28.43;45.99;;
72805;Laerm;60920;48.748;19.142;2023-04-09T07:30:53;32.15;28.58;44.13;;
72805;Laerm;60920;48.748;19.142;2023-04-09T07:33:19;32.43;28.54;43.51;;
72805;Laerm;60920;48.748;19.142;2023-04-09T07:35:44;32.94;29.68;37.67;;
72805;Laerm;60920;48.748;19.142;2023-04-09T07:38:09;31.65;28.69;38.75;;
72805;Laerm;60920;48.748;19.142;2023-04-09T07:40:35;32.28;28.81;36.24;;
72805;Laerm;60920;48.748;19.142;2023-04-09T07:43:01;32.77;29.38;37.25;;
72805;Laerm;60920;48.748;19.142;2023-04-09T07:45:26;32.56;29.24;43.60;;
72805;Laerm;60920;48.748;19.142;2023-04-09T07:47:52;32.78;28.70;39.88;;
72805;Laerm;60920;48.748;19.142;2023-04-09T07:50:17;32.70;28.92;44.21;;
72805;Laerm;60920;48.748;19.142;2023-04-09T07:52:42;33.79;28.99;43.38;;
72805;Laerm;60920;48.748;19.142;2023-04-09T07:55:11;34.28;28.67;43.05;;
72805;Laerm;60920;48.748;19.142;2023-04-09T07:57:36;32.48;29.11;43.48;;
72805;Laerm;60920;48.748;19.142;2023-04-09T08:00:01;33.21;29.66;41.73;;
72805;Laerm;60920;48.748;19.142;2023-04-09T08:02:27;32.76;29.19;44.01;;
72805;Laerm;60920;48.748;19.142;2023-04-09T08:04:53;32.92;28.82;48.28;;
72805;Laerm;60920;48.748;19.142;2023-04-09T08:07:20;33.44;29.28;45.36;;
72805;Laerm;60920;48.748;19.142;2023-04-09T08:09:45;33.82;28.76;45.36;;
72805;Laerm;60920;48.748;19.142;2023-04-09T08:12:11;34.00;29.75;45.64;;
72805;Laerm;60920;48.748;19.142;2023-04-09T08:14:36;33.91;29.87;43.33;;
72805;Laerm;60920;48.748;19.142;2023-04-09T08:17:01;34.64;29.97;45.67;;
72805;Laerm;60920;48.748;19.142;2023-04-09T08:19:27;34.38;29.75;44.85;;
72805;Laerm;60920;48.748;19.142;2023-04-09T08:21:55;34.35;29.27;43.04;;
72805;Laerm;60920;48.748;19.142;2023-04-09T08:24:21;33.93;28.66;47.74;;
72805;Laerm;60920;48.748;19.142;2023-04-09T08:26:46;34.51;28.60;50.67;;
72805;Laerm;60920;48.748;19.142;2023-04-09T08:29:12;33.33;28.86;43.36;;
72805;Laerm;60920;48.748;19.142;2023-04-09T08:31:37;32.82;29.47;42.31;;
72805;Laerm;60920;48.748;19.142;2023-04-09T08:34:03;33.98;29.89;49.77;;
72805;Laerm;60920;48.748;19.142;2023-04-09T08:36:28;33.26;29.37;42.19;;
72805;Laerm;60920;48.748;19.142;2023-04-09T08:38:54;32.80;27.93;42.87;;
72805;Laerm;60920;48.748;19.142;2023-04-09T08:41:23;33.25;28.79;44.14;;
72805;Laerm;60920;48.748;19.142;2023-04-09T08:43:50;32.96;28.95;39.45;;
72805;Laerm;60920;48.748;19.142;2023-04-09T08:46:17;33.05;28.83;37.59;;
72805;Laerm;60920;48.748;19.142;2023-04-09T08:48:43;34.43;28.80;46.36;;
72805;Laerm;60920;48.748;19.142;2023-04-09T08:51:11;33.07;29.25;41.92;;
72805;Laerm;60920;48.748;19.142;2023-04-09T08:53:37;33.84;28.41;45.96;;
72805;Laerm;60920;48.748;19.142;2023-04-09T08:56:02;33.93;29.57;48.09;;
72805;Laerm;60920;48.748;19.142;2023-04-09T08:58:28;33.98;29.40;51.36;;
72805;Laerm;60920;48.748;19.142;2023-04-09T09:00:53;34.35;29.99;46.15;;
72805;Laerm;60920;48.748;19.142;2023-04-09T09:03:20;33.49;28.24;44.95;;
72805;Laerm;60920;48.748;19.142;2023-04-09T09:05:45;33.67;30.15;40.25;;
72805;Laerm;60920;48.748;19.142;2023-04-09T09:08:12;31.89;28.47;39.32;;
72805;Laerm;60920;48.748;19.142;2023-04-09T09:10:44;33.80;29.28;43.12;;
72805;Laerm;60920;48.748;19.142;2023-04-09T09:13:25;33.62;29.12;41.02;;
72805;Laerm;60920;48.748;19.142;2023-04-09T09:15:54;34.20;29.72;40.85;;
72805;Laerm;60920;48.748;19.142;2023-04-09T09:18:39;33.81;29.23;50.02;;
72805;Laerm;60920;48.748;19.142;2023-04-09T09:21:12;34.19;30.26;42.64;;
72805;Laerm;60920;48.748;19.142;2023-04-09T09:23:37;34.25;29.74;51.40;;
72805;Laerm;60920;48.748;19.142;2023-04-09T09:28:58;33.68;29.72;40.92;;
72805;Laerm;60920;48.748;19.142;2023-04-09T09:31:24;34.30;30.73;44.22;;
72805;Laerm;60920;48.748;19.142;2023-04-09T09:33:50;34.91;30.77;49.79;;
72805;Laerm;60920;48.748;19.142;2023-04-09T09:36:32;34.57;30.75;44.25;;
72805;Laerm;60920;48.748;19.142;2023-04-09T09:38:58;34.92;30.72;45.11;;
72805;Laerm;60920;48.748;19.142;2023-04-09T09:41:26;33.99;29.68;49.66;;
72805;Laerm;60920;48.748;19.142;2023-04-09T09:43:52;34.11;29.33;47.33;;
72805;Laerm;60920;48.748;19.142;2023-04-09T09:46:17;33.75;29.26;44.54;;
72805;Laerm;60920;48.748;19.142;2023-04-09T09:48:43;32.73;29.60;37.63;;
72805;Laerm;60920;48.748;19.142;2023-04-09T09:51:11;33.91;30.51;42.74;;
72805;Laerm;60920;48.748;19.142;2023-04-09T09:53:37;33.45;29.14;37.88;;
72805;Laerm;60920;48.748;19.142;2023-04-09T09:56:09;33.69;29.04;44.46;;
72805;Laerm;60920;48.748;19.142;2023-04-09T09:58:36;35.09;30.38;47.49;;
72805;Laerm;60920;48.748;19.142;2023-04-09T10:01:07;34.45;30.57;44.82;;
72805;Laerm;60920;48.748;19.142;2023-04-09T10:03:35;33.38;29.22;37.58;;
72805;Laerm;60920;48.748;19.142;2023-04-09T10:06:04;33.90;29.50;43.85;;
72805;Laerm;60920;48.748;19.142;2023-04-09T10:08:32;33.92;29.44;43.36;;
72805;Laerm;60920;48.748;19.142;2023-04-09T10:10:59;33.41;29.36;43.28;;
72805;Laerm;60920;48.748;19.142;2023-04-09T10:13:25;34.17;30.92;44.43;;
72805;Laerm;60920;48.748;19.142;2023-04-09T10:15:55;34.82;29.91;46.62;;
72805;Laerm;60920;48.748;19.142;2023-04-09T10:18:24;33.76;30.09;47.26;;
72805;Laerm;60920;48.748;19.142;2023-04-09T10:23:26;33.87;30.24;38.55;;
72805;Laerm;60920;48.748;19.142;2023-04-09T10:25:55;33.66;29.76;39.66;;
72805;Laerm;60920;48.748;19.142;2023-04-09T10:28:20;34.68;30.75;45.38;;
72805;Laerm;60920;48.748;19.142;2023-04-09T10:30:47;33.50;28.25;48.62;;
72805;Laerm;60920;48.748;19.142;2023-04-09T10:33:13;34.11;30.82;43.54;;
72805;Laerm;60920;48.748;19.142;2023-04-09T10:35:39;34.02;29.67;43.43;;
72805;Laerm;60920;48.748;19.142;2023-04-09T10:38:12;34.37;30.36;42.49;;
72805;Laerm;60920;48.748;19.142;2023-04-09T10:40:47;33.54;29.68;43.19;;
72805;Laerm;60920;48.748;19.142;2023-04-09T10:43:19;33.86;29.69;39.97;;
72805;Laerm;60920;48.748;19.142;2023-04-09T10:45:46;33.59;30.19;38.29;;
72805;Laerm;60920;48.748;19.142;2023-04-09T10:48:17;33.48;30.00;49.24;;
72805;Laerm;60920;48.748;19.142;2023-04-09T10:50:43;34.12;29.35;40.33;;
72805;Laerm;60920;48.748;19.142;2023-04-09T10:53:20;34.19;30.15;43.64;;
72805;Laerm;60920;48.748;19.142;2023-04-09T10:55:49;33.53;29.30;43.16;;
72805;Laerm;60920;48.748;19.142;2023-04-09T10:58:18;34.12;30.21;43.51;;
72805;Laerm;60920;48.748;19.142;2023-04-09T11:00:44;33.76;29.97;41.64;;
72805;Laerm;60920;48.748;19.142;2023-04-09T11:03:26;33.53;28.79;40.61;;
72805;Laerm;60920;48.748;19.142;2023-04-09T11:05:54;33.53;28.83;38.73;;
72805;Laerm;60920;48.748;19.142;2023-04-09T11:08:20;33.62;29.96;40.21;;
72805;Laerm;60920;48.748;19.142;2023-04-09T11:10:46;33.31;30.00;40.23;;
72805;Laerm;60920;48.748;19.142;2023-04-09T11:13:12;33.94;28.47;42.80;;
72805;Laerm;60920;48.748;19.142;2023-04-09T11:15:38;33.58;29.56;45.38;;
72805;Laerm;60920;48.748;19.142;2023-04-09T11:18:03;33.09;29.23;42.90;;
72805;Laerm;60920;48.748;19.142;2023-04-09T11:20:32;33.41;30.19;41.92;;
72805;Laerm;60920;48.748;19.142;2023-04-09T11:22:57;33.12;29.23;38.86;;
72805;Laerm;60920;48.748;19.142;2023-04-09T11:25:27;33.78;29.93;43.25;;
72805;Laerm;60920;48.748;19.142;2023-04-09T11:27:53;33.46;30.01;38.27;;
72805;Laerm;60920;48.748;19.142;2023-04-09T11:30:18;33.45;28.98;39.54;;
72805;Laerm;60920;48.748;19.142;2023-04-09T11:32:44;33.84;29.90;43.34;;
72805;Laerm;60920;48.748;19.142;2023-04-09T11:35:14;33.65;29.70;42.36;;
72805;Laerm;60920;48.748;19.142;2023-04-09T11:37:40;33.36;29.55;37.18;;
72805;Laerm;60920;48.748;19.142;2023-04-09T11:40:06;33.67;30.06;37.92;;
72805;Laerm;60920;48.748;19.142;2023-04-09T11:42:31;34.59;30.33;40.26;;
72805;Laerm;60920;48.748;19.142;2023-04-09T11:44:57;33.97;29.37;44.33;;
72805;Laerm;60920;48.748;19.142;2023-04-09T11:47:22;33.31;28.26;42.20;;
72805;Laerm;60920;48.748;19.142;2023-04-09T11:49:48;33.69;29.78;40.61;;
72805;Laerm;60920;48.748;19.142;2023-04-09T11:52:13;33.67;30.37;38.49;;
72805;Laerm;60920;48.748;19.142;2023-04-09T11:54:40;35.08;30.41;47.47;;
72805;Laerm;60920;48.748;19.142;2023-04-09T11:57:06;34.43;31.10;46.26;;
72805;Laerm;60920;48.748;19.142;2023-04-09T11:59:31;34.22;30.61;41.02;;
72805;Laerm;60920;48.748;19.142;2023-04-09T12:01:57;33.66;30.31;37.21;;
72805;Laerm;60920;48.748;19.142;2023-04-09T12:04:22;33.56;29.49;41.53;;
72805;Laerm;60920;48.748;19.142;2023-04-09T12:06:47;33.34;29.58;37.96;;
72805;Laerm;60920;48.748;19.142;2023-04-09T12:09:13;33.65;29.78;42.84;;
72805;Laerm;60920;48.748;19.142;2023-04-09T12:11:43;33.49;29.09;39.56;;
72805;Laerm;60920;48.748;19.142;2023-04-09T12:14:12;33.49;30.08;38.26;;
72805;Laerm;60920;48.748;19.142;2023-04-09T12:16:38;34.63;30.00;46.42;;
72805;Laerm;60920;48.748;19.142;2023-04-09T12:19:06;33.28;28.96;43.46;;
72805;Laerm;60920;48.748;19.142;2023-04-09T12:24:09;35.10;31.12;43.72;;
72805;Laerm;60920;48.748;19.142;2023-04-09T12:26:34;33.92;29.82;43.81;;
72805;Laerm;60920;48.748;19.142;2023-04-09T12:29:00;34.14;30.03;38.42;;
72805;Laerm;60920;48.748;19.142;2023-04-09T12:31:25;34.39;30.33;44.44;;
72805;Laerm;60920;48.748;19.142;2023-04-09T12:33:50;34.43;30.70;50.19;;
72805;Laerm;60920;48.748;19.142;2023-04-09T12:36:16;33.89;30.17;41.57;;
72805;Laerm;60920;48.748;19.142;2023-04-09T12:38:41;34.27;30.79;42.52;;
72805;Laerm;60920;48.748;19.142;2023-04-09T12:41:06;34.44;30.90;45.75;;
72805;Laerm;60920;48.748;19.142;2023-04-09T12:43:32;34.43;31.05;42.54;;
72805;Laerm;60920;48.748;19.142;2023-04-09T12:45:57;34.15;28.96;44.99;;
72805;Laerm;60920;48.748;19.142;2023-04-09T12:48:23;34.11;29.16;43.34;;
72805;Laerm;60920;48.748;19.142;2023-04-09T12:50:48;34.86;31.12;41.64;;
72805;Laerm;60920;48.748;19.142;2023-04-09T12:53:13;34.10;30.09;37.58;;
72805;Laerm;60920;48.748;19.142;2023-04-09T12:55:39;33.72;29.98;38.45;;
72805;Laerm;60920;48.748;19.142;2023-04-09T12:58:04;34.05;30.15;38.82;;
72805;Laerm;60920;48.748;19.142;2023-04-09T13:00:30;34.90;29.79;40.89;;
72805;Laerm;60920;48.748;19.142;2023-04-09T13:02:55;34.87;29.32;48.33;;
72805;Laerm;60920;48.748;19.142;2023-04-09T13:05:20;33.93;29.72;41.04;;
72805;Laerm;60920;48.748;19.142;2023-04-09T13:07:46;33.58;29.27;41.54;;
72805;Laerm;60920;48.748;19.142;2023-04-09T13:10:11;34.04;30.17;40.48;;
72805;Laerm;60920;48.748;19.142;2023-04-09T13:12:36;34.54;29.94;44.12;;
72805;Laerm;60920;48.748;19.142;2023-04-09T13:15:02;35.61;30.00;50.67;;
72805;Laerm;60920;48.748;19.142;2023-04-09T13:17:27;34.66;29.80;40.81;;
72805;Laerm;60920;48.748;19.142;2023-04-09T13:19:52;33.74;29.71;40.41;;
72805;Laerm;60920;48.748;19.142;2023-04-09T13:22:18;33.05;28.90;45.58;;
72805;Laerm;60920;48.748;19.142;2023-04-09T13:24:43;34.17;28.90;45.05;;
72805;Laerm;60920;48.748;19.142;2023-04-09T13:27:09;32.76;28.95;38.13;;
72805;Laerm;60920;48.748;19.142;2023-04-09T13:29:35;34.22;29.65;40.90;;
72805;Laerm;60920;48.748;19.142;2023-04-09T13:32:00;33.71;29.43;38.44;;
72805;Laerm;60920;48.748;19.142;2023-04-09T13:34:30;33.54;29.74;43.26;;
72805;Laerm;60920;48.748;19.142;2023-04-09T13:36:56;33.95;30.28;44.78;;
72805;Laerm;60920;48.748;19.142;2023-04-09T13:39:21;34.75;29.91;45.20;;
72805;Laerm;60920;48.748;19.142;2023-04-09T13:41:46;33.91;30.21;49.04;;
72805;Laerm;60920;48.748;19.142;2023-04-09T13:44:12;33.27;30.52;47.14;;
72805;Laerm;60920;48.748;19.142;2023-04-09T13:46:37;33.70;30.03;40.58;;